createdAt,value
2022-12-04T00:01:27.886Z,94.39
2022-12-04T00:03:59.294Z,94.26
2022-12-04T00:06:27.644Z,94.43
2022-12-04T00:08:56.199Z,94.25
2022-12-04T00:11:28.041Z,94.04
2022-12-04T00:14:01.486Z,93.83
2022-12-04T00:16:32.887Z,93.90
2022-12-04T00:19:04.871Z,93.79
2022-12-04T00:21:35.569Z,93.34
2022-12-04T00:24:03.638Z,93.37
2022-12-04T00:26:31.523Z,93.47
2022-12-04T00:28:59.795Z,93.27
2022-12-04T00:31:29.359Z,93.00
2022-12-04T00:34:00.381Z,92.60
2022-12-04T00:36:30.057Z,92.99
2022-12-04T00:39:00.589Z,92.85
2022-12-04T00:41:30.438Z,92.75
2022-12-04T00:43:59.949Z,92.49
2022-12-04T00:46:28.679Z,92.45
2022-12-04T00:48:56.807Z,92.54
2022-12-04T00:51:25.361Z,92.54
2022-12-04T00:53:54.094Z,92.53
2022-12-04T00:56:25.246Z,92.25
2022-12-04T00:58:57.617Z,92.34
2022-12-04T01:01:26.378Z,92.31
2022-12-04T01:03:55.637Z,92.53
2022-12-04T01:06:26.440Z,92.33
2022-12-04T01:08:56.428Z,92.32
2022-12-04T01:11:28.276Z,92.41
2022-12-04T01:13:57.601Z,92.29
2022-12-04T01:16:30.756Z,92.52
2022-12-04T01:18:59.150Z,92.29
2022-12-04T01:21:27.129Z,92.06
2022-12-04T01:23:55.064Z,92.20
2022-12-04T01:26:23.163Z,92.19
2022-12-04T01:28:50.964Z,92.19
2022-12-04T01:31:20.924Z,92.18
2022-12-04T01:33:49.698Z,91.90
2022-12-04T01:36:22.342Z,92.08
2022-12-04T01:38:54.334Z,91.89
2022-12-04T01:41:25.937Z,91.86
2022-12-04T01:44:25.861Z,91.53
2022-12-04T01:46:55.766Z,91.30
2022-12-04T01:49:34.098Z,91.37
2022-12-04T01:52:20.085Z,91.14
2022-12-04T01:54:54.381Z,91.26
2022-12-04T01:57:25.334Z,90.82
2022-12-04T01:59:59.601Z,90.98
2022-12-04T02:02:32.916Z,90.91
2022-12-04T02:05:02.462Z,90.90
2022-12-04T02:07:31.682Z,90.90
2022-12-04T02:10:03.874Z,90.80
2022-12-04T02:12:56.136Z,90.78
2022-12-04T02:15:42.293Z,90.75
2022-12-04T02:18:29.246Z,90.59
2022-12-04T02:21:06.599Z,90.86
2022-12-04T02:23:57.864Z,90.49
2022-12-04T02:26:41.157Z,90.65
2022-12-04T02:29:30.018Z,90.78
2022-12-04T02:32:21.318Z,90.73
2022-12-04T02:34:59.117Z,90.55
2022-12-04T02:37:34.426Z,90.76
2022-12-04T02:40:09.918Z,91.11
2022-12-04T02:42:52.833Z,91.20
2022-12-04T02:45:26.257Z,91.24
2022-12-04T02:47:55.955Z,90.84
2022-12-04T02:50:24.509Z,91.00
2022-12-04T02:52:59.906Z,91.05
2022-12-04T02:55:37.041Z,90.80
2022-12-04T02:58:11.254Z,90.99
2022-12-04T03:00:42.017Z,90.99
2022-12-04T03:03:18.548Z,90.74
2022-12-04T03:05:57.946Z,91.16
2022-12-04T03:08:33.186Z,91.10
2022-12-04T03:11:02.101Z,91.25
2022-12-04T03:13:40.006Z,91.08
2022-12-04T03:16:14.413Z,91.23
2022-12-04T03:18:48.702Z,91.47
2022-12-04T03:21:21.517Z,91.24
2022-12-04T03:23:55.103Z,91.48
2022-12-04T03:26:32.639Z,91.58
2022-12-04T03:29:12.674Z,91.09
2022-12-04T03:31:50.404Z,91.33
2022-12-04T03:34:28.077Z,91.31
2022-12-04T03:37:02.437Z,91.26
2022-12-04T03:39:38.221Z,91.35
2022-12-04T03:42:15.267Z,91.21
2022-12-04T03:44:49.462Z,91.13
2022-12-04T03:47:34.100Z,91.18
2022-12-04T03:50:13.399Z,91.48
2022-12-04T03:52:52.763Z,91.23
2022-12-04T03:55:29.749Z,91.37
2022-12-04T03:58:06.689Z,92.02
2022-12-04T04:00:39.530Z,93.42
2022-12-04T04:03:13.222Z,93.50
2022-12-04T04:05:47.397Z,92.99
2022-12-04T04:08:26.874Z,93.01
2022-12-04T04:11:13.867Z,92.63
2022-12-04T04:14:03.762Z,92.82
2022-12-04T04:16:53.880Z,92.77
2022-12-04T04:19:34.026Z,92.48
2022-12-04T04:22:24.277Z,92.33
2022-12-04T04:25:05.687Z,91.88
2022-12-04T04:27:35.456Z,91.12
2022-12-04T04:30:04.233Z,90.92
2022-12-04T04:32:41.114Z,90.99
2022-12-04T04:35:37.219Z,91.06
2022-12-04T04:38:20.124Z,90.98
2022-12-04T04:41:00.343Z,90.85
2022-12-04T04:43:53.218Z,90.81
2022-12-04T04:46:29.010Z,90.78
2022-12-04T04:49:00.885Z,90.86
2022-12-04T04:51:31.106Z,90.92
2022-12-04T04:54:04.518Z,91.02
2022-12-04T04:56:32.337Z,91.23
2022-12-04T04:59:00.032Z,91.03
2022-12-04T05:01:28.810Z,91.16
2022-12-04T05:03:56.579Z,92.03
2022-12-04T05:06:24.341Z,92.40
2022-12-04T05:08:52.183Z,92.66
2022-12-04T05:11:19.937Z,93.71
2022-12-04T05:13:47.740Z,93.62
2022-12-04T05:16:16.680Z,93.92
2022-12-04T05:19:05.049Z,93.82
2022-12-04T05:21:34.157Z,93.71
2022-12-04T05:24:02.175Z,93.31
2022-12-04T05:26:30.043Z,93.10
2022-12-04T05:28:57.764Z,92.82
2022-12-04T05:31:25.692Z,92.74
2022-12-04T05:33:53.490Z,92.81
2022-12-04T05:36:21.513Z,92.46
2022-12-04T05:38:49.267Z,91.93
2022-12-04T05:41:17.014Z,91.41
2022-12-04T05:43:44.885Z,91.31
2022-12-04T05:46:12.731Z,91.18
2022-12-04T05:48:40.521Z,91.16
2022-12-04T05:51:10.642Z,90.60
2022-12-04T05:53:38.964Z,90.62
2022-12-04T05:56:07.693Z,90.98
2022-12-04T05:58:37.144Z,90.88
2022-12-04T06:01:11.623Z,90.54
2022-12-04T06:03:39.579Z,90.57
2022-12-04T06:06:24.795Z,90.52
2022-12-04T06:08:56.009Z,90.31
2022-12-04T06:11:27.201Z,90.39
2022-12-04T06:13:56.632Z,90.21
2022-12-04T06:16:29.744Z,90.39
2022-12-04T06:19:00.865Z,90.29
2022-12-04T06:21:32.181Z,90.30
2022-12-04T06:23:59.975Z,90.89
2022-12-04T06:26:28.299Z,90.78
2022-12-04T06:28:58.516Z,90.75
2022-12-04T06:31:28.983Z,90.97
2022-12-04T06:33:57.898Z,91.03
2022-12-04T06:36:26.307Z,90.97
2022-12-04T06:38:56.129Z,90.78
2022-12-04T06:41:26.227Z,90.68
2022-12-04T06:43:54.214Z,90.28
2022-12-04T06:46:25.242Z,90.12
2022-12-04T06:48:55.695Z,89.74
2022-12-04T06:51:26.466Z,89.65
2022-12-04T06:53:54.691Z,89.54
2022-12-04T06:56:26.028Z,89.17
2022-12-04T06:58:56.180Z,89.45
2022-12-04T07:01:27.430Z,89.64
2022-12-04T07:03:56.981Z,89.56
2022-12-04T07:06:29.569Z,89.69
2022-12-04T07:09:03.742Z,89.32
2022-12-04T07:11:32.742Z,89.46
2022-12-04T07:14:00.447Z,89.74
2022-12-04T07:16:35.333Z,89.49
2022-12-04T07:19:06.670Z,89.57
2022-12-04T07:21:34.848Z,89.37
2022-12-04T07:24:02.733Z,89.35
2022-12-04T07:26:30.955Z,89.64
2022-12-04T07:28:59.940Z,90.03
2022-12-04T07:31:29.480Z,89.52
2022-12-04T07:33:58.291Z,89.62
2022-12-04T07:36:26.988Z,89.23
2022-12-04T07:38:56.241Z,89.47
2022-12-04T07:41:24.583Z,89.60
2022-12-04T07:43:52.352Z,89.55
2022-12-04T07:46:24.079Z,89.78
2022-12-04T07:48:52.175Z,89.76
2022-12-04T07:51:22.954Z,89.88
2022-12-04T07:53:53.414Z,89.98
2022-12-04T07:56:21.822Z,89.90
2022-12-04T07:58:49.563Z,90.17
2022-12-04T08:01:21.711Z,89.51
2022-12-04T08:03:55.060Z,88.32
2022-12-04T08:06:24.952Z,88.15
2022-12-04T08:08:53.562Z,88.50
2022-12-04T08:11:23.797Z,87.47
2022-12-04T08:14:01.452Z,87.88
2022-12-04T08:16:31.232Z,88.18
2022-12-04T08:19:00.032Z,88.15
2022-12-04T08:21:30.464Z,87.97
2022-12-04T08:23:59.946Z,87.91
2022-12-04T08:26:30.283Z,87.71
2022-12-04T08:28:58.685Z,87.90
2022-12-04T08:31:29.536Z,87.66
2022-12-04T08:33:59.016Z,87.46
2022-12-04T08:36:27.288Z,87.54
2022-12-04T08:38:55.619Z,87.47
2022-12-04T08:41:26.045Z,87.30
2022-12-04T08:43:55.591Z,87.10
2022-12-04T08:46:25.941Z,87.06
2022-12-04T08:48:54.697Z,86.82
2022-12-04T08:51:25.199Z,87.04
2022-12-04T08:53:56.516Z,87.27
2022-12-04T08:56:25.795Z,87.22
2022-12-04T08:58:56.230Z,87.30
2022-12-04T09:01:26.003Z,87.13
2022-12-04T09:03:54.338Z,85.12
2022-12-04T09:06:22.993Z,84.51
2022-12-04T09:08:55.159Z,83.48
2022-12-04T09:11:26.003Z,83.67
2022-12-04T09:13:53.897Z,83.26
2022-12-04T09:16:24.115Z,83.68
2022-12-04T09:18:52.945Z,83.28
2022-12-04T09:21:22.626Z,83.54
2022-12-04T09:23:51.421Z,82.43
2022-12-04T09:26:24.906Z,82.39
2022-12-04T09:28:53.669Z,83.28
2022-12-04T09:31:23.673Z,82.33
2022-12-04T09:33:52.843Z,82.64
2022-12-04T09:36:24.218Z,82.20
2022-12-04T09:38:54.516Z,81.39
2022-12-04T09:41:40.160Z,80.44
2022-12-04T09:44:29.412Z,78.91
2022-12-04T09:47:02.887Z,79.88
2022-12-04T09:49:42.048Z,78.52
2022-12-04T09:52:26.657Z,79.04
2022-12-04T09:54:55.799Z,78.59
2022-12-04T09:57:35.143Z,78.02
2022-12-04T10:00:06.131Z,78.35
2022-12-04T10:02:41.632Z,78.04
2022-12-04T10:05:48.093Z,78.25
2022-12-04T10:08:38.405Z,78.53
2022-12-04T10:11:17.017Z,78.82
2022-12-04T10:14:03.372Z,79.03
2022-12-04T10:16:58.199Z,78.64
2022-12-04T10:19:42.091Z,78.99
2022-12-04T10:22:22.851Z,78.25
2022-12-04T10:24:55.506Z,76.84
2022-12-04T10:27:35.904Z,77.29
2022-12-04T10:30:21.878Z,77.09
2022-12-04T10:32:59.434Z,76.73
2022-12-04T10:35:30.682Z,75.42
2022-12-04T10:38:18.115Z,74.40
2022-12-04T10:40:51.102Z,74.08
2022-12-04T10:43:46.978Z,73.12
2022-12-04T10:46:30.223Z,72.04
2022-12-04T10:49:03.176Z,72.25
2022-12-04T10:51:39.797Z,70.78
2022-12-04T10:54:21.736Z,69.52
2022-12-04T10:56:54.539Z,69.12
2022-12-04T10:59:23.377Z,68.09
2022-12-04T11:02:04.647Z,68.99
2022-12-04T11:04:35.520Z,68.97
2022-12-04T11:07:15.920Z,67.79
2022-12-04T11:09:43.560Z,66.89
2022-12-04T11:12:21.896Z,66.61
2022-12-04T11:15:01.022Z,67.03
2022-12-04T11:17:32.085Z,64.75
2022-12-04T11:20:02.254Z,65.29
2022-12-04T11:22:31.215Z,63.93
2022-12-04T11:25:01.883Z,62.63
2022-12-04T11:27:33.545Z,64.04
2022-12-04T11:30:07.732Z,64.27
2022-12-04T11:32:36.469Z,61.94
2022-12-04T11:35:17.363Z,62.82
2022-12-04T11:37:55.804Z,63.49
2022-12-04T11:40:25.626Z,62.74
2022-12-04T11:43:14.796Z,63.54
2022-12-04T11:45:54.426Z,64.32
2022-12-04T11:48:22.721Z,64.25
2022-12-04T11:51:10.870Z,64.37
2022-12-04T11:53:59.547Z,65.02
2022-12-04T11:56:35.666Z,64.91
2022-12-04T11:59:22.121Z,65.44
2022-12-04T12:02:23.488Z,64.36
2022-12-04T12:05:14.159Z,65.14
2022-12-04T12:08:02.112Z,65.41
2022-12-04T12:10:45.730Z,64.31
2022-12-04T12:13:35.780Z,65.21
2022-12-04T12:16:16.321Z,64.09
2022-12-04T12:19:04.871Z,61.57
2022-12-04T12:21:49.863Z,60.93
2022-12-04T12:24:25.643Z,59.71
2022-12-04T12:27:14.035Z,59.28
2022-12-04T12:30:06.596Z,58.08
2022-12-04T12:33:06.246Z,57.74
2022-12-04T12:35:53.393Z,57.93
2022-12-04T12:38:26.760Z,57.26
2022-12-04T12:41:01.766Z,57.14
2022-12-04T12:43:39.832Z,57.69
2022-12-04T12:46:16.276Z,56.22
2022-12-04T12:48:58.749Z,55.21
2022-12-04T12:51:40.667Z,56.18
2022-12-04T12:54:23.239Z,55.38
2022-12-04T12:56:55.867Z,53.99
2022-12-04T12:59:27.260Z,54.93
2022-12-04T13:02:12.014Z,54.39
2022-12-04T13:04:43.692Z,54.69
2022-12-04T13:07:27.893Z,55.50
2022-12-04T13:10:07.725Z,54.14
2022-12-04T13:12:45.384Z,55.27
2022-12-04T13:15:16.029Z,54.84
2022-12-04T13:17:45.311Z,52.69
2022-12-04T13:20:21.114Z,53.05
2022-12-04T13:23:12.831Z,53.97
2022-12-04T13:25:59.601Z,54.14
2022-12-04T13:28:59.837Z,53.18
2022-12-04T13:31:45.383Z,53.50
2022-12-04T13:34:33.882Z,53.56
2022-12-04T13:37:18.115Z,54.30
2022-12-04T13:40:20.441Z,54.96
2022-12-04T13:42:48.333Z,55.82
2022-12-04T13:45:33.995Z,56.13
2022-12-04T13:48:03.487Z,56.96
2022-12-04T13:50:34.579Z,57.62
2022-12-04T13:53:02.872Z,58.30
2022-12-04T13:55:35.644Z,59.17
2022-12-04T13:58:28.832Z,60.44
2022-12-04T14:01:03.521Z,61.14
2022-12-04T14:03:39.463Z,62.15
2022-12-04T14:06:22.916Z,62.81
2022-12-04T14:08:58.364Z,63.64
2022-12-04T14:11:28.003Z,65.06
2022-12-04T14:14:03.464Z,65.29
2022-12-04T14:16:41.086Z,66.86
2022-12-04T14:19:27.680Z,69.66
2022-12-04T14:21:55.861Z,71.62
2022-12-04T14:24:39.399Z,73.00
2022-12-04T14:27:34.802Z,74.30
2022-12-04T14:30:03.269Z,74.46
2022-12-04T14:32:35.141Z,74.68
2022-12-04T14:35:03.654Z,74.73
2022-12-04T14:37:36.204Z,77.58
2022-12-04T14:40:07.426Z,77.22
2022-12-04T14:42:40.100Z,76.72
2022-12-04T14:45:29.193Z,78.61
2022-12-04T14:48:23.105Z,78.02
2022-12-04T14:51:04.975Z,78.84
2022-12-04T14:53:49.126Z,77.33
2022-12-04T14:56:40.515Z,76.61
2022-12-04T14:59:18.111Z,79.10
2022-12-04T15:01:48.290Z,80.15
2022-12-04T15:04:25.836Z,80.38
2022-12-04T15:06:59.889Z,81.21
2022-12-04T15:09:45.952Z,81.29
2022-12-04T15:12:34.122Z,82.11
2022-12-04T15:15:25.691Z,81.80
2022-12-04T15:18:14.897Z,80.67
2022-12-04T15:20:58.476Z,80.14
2022-12-04T15:23:36.320Z,80.38
2022-12-04T15:26:09.892Z,79.87
2022-12-04T15:28:46.704Z,79.18
2022-12-04T15:31:20.531Z,79.93
2022-12-04T15:33:51.859Z,79.97
2022-12-04T15:36:44.474Z,79.89
2022-12-04T15:39:19.045Z,80.34
2022-12-04T15:41:47.416Z,80.89
2022-12-04T15:44:30.066Z,80.37
2022-12-04T15:47:00.961Z,80.33
2022-12-04T15:49:30.969Z,80.65
2022-12-04T15:52:17.779Z,80.24
2022-12-04T15:55:01.053Z,81.21
2022-12-04T15:57:33.732Z,80.49
2022-12-04T16:00:05.145Z,80.30
2022-12-04T16:02:36.253Z,80.24
2022-12-04T16:05:27.689Z,79.99
2022-12-04T16:08:00.058Z,79.99
2022-12-04T16:10:32.073Z,79.99
2022-12-04T16:13:02.639Z,80.66
2022-12-04T16:15:40.580Z,80.08
2022-12-04T16:18:13.286Z,79.74
2022-12-04T16:20:41.424Z,79.93
2022-12-04T16:23:09.507Z,80.90
2022-12-04T16:25:37.308Z,80.47
2022-12-04T16:28:06.222Z,80.15
2022-12-04T16:30:35.825Z,80.29
2022-12-04T16:33:03.763Z,80.42
2022-12-04T16:35:31.573Z,80.13
2022-12-04T16:37:59.264Z,79.90
2022-12-04T16:40:27.053Z,79.78
2022-12-04T16:42:54.818Z,79.52
2022-12-04T16:45:27.641Z,79.40
2022-12-04T16:47:56.153Z,78.78
2022-12-04T16:50:24.994Z,78.73
2022-12-04T16:52:52.975Z,78.46
2022-12-04T16:55:28.121Z,78.39
2022-12-04T16:57:55.832Z,77.83
2022-12-04T17:00:24.167Z,77.73
2022-12-04T17:02:51.962Z,77.63
2022-12-04T17:05:25.773Z,77.42
2022-12-04T17:07:53.868Z,77.34
2022-12-04T17:10:24.176Z,77.40
2022-12-04T17:12:53.595Z,77.15
2022-12-04T17:15:22.234Z,76.82
2022-12-04T17:17:50.579Z,76.97
2022-12-04T17:20:20.891Z,76.65
2022-12-04T17:22:49.076Z,76.53
2022-12-04T17:25:17.736Z,75.83
2022-12-04T17:27:45.950Z,76.05
2022-12-04T17:30:14.496Z,75.71
2022-12-04T17:32:42.475Z,76.20
2022-12-04T17:35:12.283Z,76.10
2022-12-04T17:37:40.084Z,75.30
2022-12-04T17:40:10.465Z,75.42
2022-12-04T17:42:38.412Z,75.82
2022-12-04T17:45:07.045Z,75.78
2022-12-04T17:47:35.672Z,75.40
2022-12-04T17:50:06.141Z,75.32
2022-12-04T17:52:34.169Z,75.11
2022-12-04T17:55:01.800Z,74.99
2022-12-04T17:57:29.625Z,74.88
2022-12-04T17:59:57.447Z,74.75
2022-12-04T18:02:25.263Z,74.57
2022-12-04T18:04:56.493Z,74.78
2022-12-04T18:07:24.445Z,74.85
2022-12-04T18:09:52.131Z,74.72
2022-12-04T18:12:19.882Z,74.85
2022-12-04T18:14:49.906Z,74.92
2022-12-04T18:17:20.782Z,75.43
2022-12-04T18:19:48.567Z,75.27
2022-12-04T18:22:16.342Z,75.24
2022-12-04T18:24:44.131Z,76.53
2022-12-04T18:27:11.844Z,77.95
2022-12-04T18:29:39.814Z,79.40
2022-12-04T18:32:07.609Z,80.07
2022-12-04T18:34:35.375Z,81.09
2022-12-04T18:37:03.689Z,81.06
2022-12-04T18:39:31.525Z,81.37
2022-12-04T18:41:59.241Z,81.63
2022-12-04T18:44:27.130Z,82.18
2022-12-04T18:46:54.910Z,83.39
2022-12-04T18:49:22.753Z,84.71
2022-12-04T18:51:51.631Z,83.73
2022-12-04T18:54:22.255Z,82.82
2022-12-04T18:56:51.274Z,82.27
2022-12-04T18:59:22.474Z,81.97
2022-12-04T19:01:51.079Z,83.18
2022-12-04T19:04:20.936Z,85.16
2022-12-04T19:06:57.544Z,86.36
2022-12-04T19:09:54.337Z,85.52
2022-12-04T19:12:16.712Z,85.57
2022-12-04T19:14:45.023Z,85.79
2022-12-04T19:17:13.139Z,85.25
2022-12-04T19:19:40.943Z,84.84
2022-12-04T19:22:08.696Z,84.87
2022-12-04T19:24:36.469Z,85.79
2022-12-04T19:27:10.951Z,85.34
2022-12-04T19:29:40.042Z,84.98
2022-12-04T19:32:10.538Z,84.91
2022-12-04T19:34:38.441Z,84.41
2022-12-04T19:37:06.826Z,84.23
2022-12-04T19:39:34.496Z,83.84
2022-12-04T19:42:02.208Z,83.41
2022-12-04T19:47:18.629Z,83.28
2022-12-04T19:49:46.903Z,83.43
2022-12-04T19:52:15.203Z,84.13
2022-12-04T19:54:43.088Z,84.46
2022-12-04T19:57:10.802Z,85.66
2022-12-04T19:59:43.119Z,86.90
2022-12-04T20:02:14.162Z,86.97
2022-12-04T20:04:43.080Z,88.65
2022-12-04T20:07:11.579Z,87.84
2022-12-04T20:09:39.355Z,90.47
2022-12-04T20:12:07.388Z,89.20
2022-12-04T20:14:35.046Z,87.95
2022-12-04T20:17:04.009Z,89.37
2022-12-04T20:19:31.984Z,90.16
2022-12-04T20:22:00.081Z,89.12
2022-12-04T20:24:27.914Z,88.60
2022-12-04T20:26:55.692Z,88.32
2022-12-04T20:29:23.408Z,87.70
2022-12-04T20:31:51.100Z,88.55
2022-12-04T20:34:19.748Z,88.34
2022-12-04T20:36:49.252Z,87.85
2022-12-04T20:39:18.636Z,87.46
2022-12-04T20:41:46.368Z,87.56
2022-12-04T20:44:16.956Z,87.76
2022-12-04T20:46:45.399Z,87.42
2022-12-04T20:49:21.293Z,87.32
2022-12-04T20:51:51.731Z,87.24
2022-12-04T20:54:21.494Z,87.01
2022-12-04T20:56:52.016Z,86.86
2022-12-04T20:59:24.575Z,86.74
2022-12-04T21:01:53.057Z,86.42
2022-12-04T21:04:21.418Z,86.41
2022-12-04T21:06:52.028Z,86.54
2022-12-04T21:09:22.835Z,86.21
2022-12-04T21:11:53.072Z,86.25
2022-12-04T21:14:40.793Z,86.06
2022-12-04T21:17:13.066Z,87.00
2022-12-04T21:19:40.733Z,89.50
2022-12-04T21:22:08.507Z,87.74
2022-12-04T21:24:38.676Z,87.17
2022-12-04T21:27:09.072Z,87.39
2022-12-04T21:29:38.419Z,87.09
2022-12-04T21:32:07.203Z,86.68
2022-12-04T21:34:35.454Z,86.69
2022-12-04T21:37:03.115Z,86.63
2022-12-04T21:39:30.836Z,86.69
2022-12-04T21:42:12.158Z,86.70
2022-12-04T21:44:43.093Z,86.81
2022-12-04T21:47:11.168Z,86.91
2022-12-04T21:49:41.815Z,87.21
2022-12-04T21:52:09.733Z,87.52
2022-12-04T21:54:37.423Z,87.79
2022-12-04T21:57:05.214Z,87.46
2022-12-04T21:59:33.601Z,87.54
2022-12-04T22:02:02.217Z,87.60
2022-12-04T22:04:30.198Z,87.54
2022-12-04T22:06:58.123Z,87.62
2022-12-04T22:09:26.130Z,87.72
2022-12-04T22:11:53.994Z,87.48
2022-12-04T22:14:21.820Z,87.57
2022-12-04T22:16:51.984Z,87.60
2022-12-04T22:19:20.167Z,89.58
2022-12-04T22:21:48.443Z,88.62
2022-12-04T22:24:16.218Z,88.12
2022-12-04T22:26:44.025Z,87.78
2022-12-04T22:29:42.057Z,87.74
2022-12-04T22:31:59.406Z,87.39
2022-12-04T22:34:27.118Z,87.46
2022-12-04T22:36:54.848Z,87.39
2022-12-04T22:39:22.761Z,87.34
2022-12-04T22:41:50.463Z,87.22
2022-12-04T22:44:18.667Z,87.42
2022-12-04T22:46:46.759Z,87.48
2022-12-04T22:49:14.948Z,87.54
2022-12-04T22:51:42.553Z,87.54
2022-12-04T22:54:14.041Z,87.30
2022-12-04T22:56:44.171Z,87.61
2022-12-04T22:59:11.890Z,88.06
2022-12-04T23:01:39.624Z,87.79
2022-12-04T23:04:07.355Z,87.84
2022-12-04T23:06:35.741Z,87.63
2022-12-04T23:09:07.684Z,87.86
2022-12-04T23:11:36.529Z,87.91
2022-12-04T23:14:06.456Z,87.66
2022-12-04T23:16:36.014Z,88.02
2022-12-04T23:19:05.489Z,88.40
2022-12-04T23:21:34.007Z,87.52
2022-12-04T23:24:01.820Z,87.79
2022-12-04T23:26:32.672Z,87.91
2022-12-04T23:29:01.669Z,88.10
2022-12-04T23:31:30.734Z,88.27
2022-12-04T23:33:59.916Z,88.28
2022-12-04T23:36:27.830Z,88.00
2022-12-04T23:38:55.864Z,88.10
2022-12-04T23:41:26.975Z,87.87
2022-12-04T23:43:55.254Z,88.38
2022-12-04T23:46:30.244Z,88.66
2022-12-04T23:49:00.066Z,88.22
2022-12-04T23:51:28.122Z,88.46
2022-12-04T23:53:55.967Z,88.54
2022-12-04T23:56:26.296Z,88.89
2022-12-04T23:58:56.793Z,90.37
